Terminal Aerodrome Forecast
Issued by NWS

Home | Current Version | Previous Version | Text Only | Print | Product List | Glossary On
Versions: 1 2 3 4 5 6 7 8 9 10 11 12 13 14 15 16 17 18 19 20 21 22 23 24 25 26 27 28 29
000
FTUS45 KCYS 271700
TAFAIA
TAF
KAIA 271727Z 2718/2818 13012G18KT P6SM VCTS SCT015CB BKN040
      TEMPO 2718/2722 4SM -TSRA BR OVC015CB
     FM280300 32005KT P6SM VCSH BKN040 OVC100=

USA.gov is the U.S. government's official web portal to all federal, state and local government web resources and services.